Date,TemperatureHighF,TemperatureAvgF,TemperatureLowF,DewpointHighF,DewpointAvgF,DewpointLowF,HumidityHigh,HumidityAvg,HumidityLow,PressureMaxIn,PressureMinIn,WindSpeedMaxMPH,WindSpeedAvgMPH,GustSpeedMaxMPH,PrecipitationSumIn
2013-5-1,72.5,53.0,31.5,38.4,32.9,26.4,93,54,21,30.45,30.32,10,2,10,0.00
2013-5-2,79.5,54.8,35.5,46.7,37.8,31.0,97,60,23,30.46,30.29,12,2,12,0.00
2013-5-3,64.7,50.1,35.4,46.5,40.2,33.0,94,71,46,30.49,30.36,12,2,12,0.00
2013-5-4,68.0,50.8,34.4,49.2,37.6,23.6,99,66,27,30.36,30.24,12,2,12,0.00
2013-5-5,68.2,48.5,29.5,40.5,34.8,28.0,98,65,28,30.30,30.20,9,2,9,0.00
2013-5-6,74.8,52.9,30.5,46.9,37.1,23.5,99,65,16,30.25,30.10,8,2,8,0.00
2013-5-7,80.2,60.4,38.0,56.3,46.2,37.0,99,67,24,30.15,30.04,12,2,12,0.00
2013-5-8,70.8,58.8,47.4,63.2,56.2,46.0,99,92,66,30.16,30.01,12,1,12,0.83
2013-5-9,67.5,58.8,53.8,60.2,57.0,53.0,100,94,71,30.01,29.85,7,1,7,0.24
2013-5-10,76.7,62.5,50.3,62.3,54.9,50.0,100,80,44,29.94,29.86,8,1,8,0.01
2013-5-11,63.9,60.3,56.7,61.5,58.7,54.0,99,95,80,29.87,29.65,14,3,14,0.39
2013-5-12,65.0,55.2,40.8,58.5,47.1,28.8,99,77,42,29.77,29.56,16,2,16,0.01
2013-5-13,50.3,42.9,35.1,33.4,30.6,27.0,87,63,43,30.04,29.78,15,4,15,0.00
2013-5-14,55.5,42.8,29.5,36.0,31.6,28.1,97,68,39,30.06,29.99,12,2,12,0.00
2013-5-15,62.0,46.0,28.8,51.3,39.3,27.8,98,82,35,30.05,29.67,14,2,14,0.12
2013-5-16,76.5,60.4,38.6,50.0,40.5,31.0,100,56,23,29.79,29.63,24,5,24,0.01
2013-5-17,66.8,53.7,41.0,44.9,40.2,34.6,90,63,32,30.21,29.79,12,3,12,0.00
2013-5-18,70.4,54.2,34.2,48.0,40.0,32.9,99,65,30,30.30,30.20,8,2,8,0.00
2013-5-19,67.8,54.1,40.7,54.5,49.4,39.6,99,86,58,30.31,30.17,10,2,10,0.07
2013-5-20,78.3,63.6,53.6,65.4,59.0,53.0,99,87,61,30.17,29.91,12,2,12,0.03
2013-5-21,82.5,63.4,48.8,69.1,58.7,47.7,99,86,56,30.06,29.82,12,2,12,0.34
2013-5-22,75.4,58.5,49.0,69.1,57.0,48.0,99,95,77,29.99,29.83,7,2,7,1.15
2013-5-23,72.0,62.5,54.0,70.0,61.8,53.4,100,98,86,29.88,29.74,10,2,10,0.68
2013-5-24,65.5,57.5,44.7,64.3,56.2,44.0,100,95,85,29.82,29.59,12,3,12,0.37
2013-5-25,46.0,42.5,36.6,45.5,41.9,35.6,99,97,96,29.81,29.73,14,4,14,0.78
2013-5-26,52.6,43.7,35.1,42.2,38.4,34.3,98,82,60,30.10,29.73,14,6,14,0.03
2013-5-27,68.0,50.9,31.8,44.9,37.9,31.0,99,68,31,30.17,30.08,16,3,16,0.00
2013-5-28,72.6,55.9,35.7,51.4,42.9,34.9,99,68,30,30.22,30.12,8,1,9,0.00
2013-5-29,70.5,60.4,53.7,66.9,58.9,50.5,99,95,85,30.15,29.96,12,1,12,0.47
2013-5-30,84.8,70.5,58.7,69.3,63.8,58.3,100,82,50,30.07,29.99,14,3,14,0.01
2013-5-31,90.8,73.3,55.2,71.0,62.9,54.6,100,74,38,30.08,29.90,12,2,12,0.00